OIFM

Esfahan Shahid Beheshti International Airport

Isfahan, Iran
TAF OIFM 212300Z 2200/2306 30006KT 8000 FEW035 TEMPO 2202/2205 5000 BR TEMPO 2223/2306 SCT035 BKN100
Issued Valid From Valid To
Jan-21 @ 23:00 UTC
(an hour ago)
Jan-22 @ 00:00 UTC
(12 minutes ago)
Jan-23 @ 06:00 UTC
(-1 days ago)
Jan-22 @ 00:00 to Jan-23 @ 06:00
TAF OIFM 212300Z 2200/2306 30006KT 8000 FEW035
Wind Visibility Clouds
300° at 6 knots 7,998 meters
  • Few at 3,500' AGL
Temporary Jan-22 @ 02:00 to Jan-22 @ 05:00
TEMPO 2202/2205 5000 BR
Visibility Conditions
5,005 meters
  • Mist
Temporary Jan-22 @ 23:00 to Jan-23 @ 06:00
TEMPO 2223/2306 SCT035 BKN100
Clouds
  • Scattered at 3,500' AGL
  • Broken at 10,000' AGL
TAF OIFM 212300Z 2200/2306 30006KT 8000 FEW035 TEMPO 2202/2205 5000 BR TEMPO 2223/2306 SCT035 BKN100
Issued Jan-21 @ 23:00 UTC
(an hour ago)
Valid From Jan-22 @ 00:00 UTC
(12 minutes ago)
Valid To Jan-23 @ 06:00 UTC
(-1 days ago)
Jan-22 @ 00:00 - Jan-23 @ 06:00
Wind Visibility
300° at 6 knots 7,998 meters
Clouds
  • Few at 3,500' AGL
Temporary Jan-22 @ 02:00 - Jan-22 @ 05:00
Conditions
  • Mist
Temporary Jan-22 @ 23:00 - Jan-23 @ 06:00
Clouds
  • Scattered at 3,500' AGL
  • Broken at 10,000' AGL